sensor_id;sensor_type;location;lat;lon;timestamp;pressure;altitude;pressure_sealevel;temperature;humidity
55347;BME280;41218;55.700;38.270;2023-04-08T00:02:16;100986.47;;;2.15;60.96
55347;BME280;41218;55.700;38.270;2023-04-08T00:07:16;100994.97;;;2.13;60.97
55347;BME280;41218;55.700;38.270;2023-04-08T00:12:17;100998.84;;;2.07;61.15
55347;BME280;41218;55.700;38.270;2023-04-08T00:17:17;100991.19;;;2.04;61.19
55347;BME280;41218;55.700;38.270;2023-04-08T00:22:18;100995.59;;;2.00;61.23
55347;BME280;41218;55.700;38.270;2023-04-08T00:27:18;100987.19;;;1.91;61.23
55347;BME280;41218;55.700;38.270;2023-04-08T00:32:19;100996.22;;;1.87;61.21
55347;BME280;41218;55.700;38.270;2023-04-08T00:37:20;100996.22;;;1.87;61.10
55347;BME280;41218;55.700;38.270;2023-04-08T00:42:20;101005.22;;;1.82;61.39
55347;BME280;41218;55.700;38.270;2023-04-08T00:47:21;100992.72;;;1.76;61.40
55347;BME280;41218;55.700;38.270;2023-04-08T00:52:22;100994.91;;;1.74;61.39
55347;BME280;41218;55.700;38.270;2023-04-08T00:57:22;100999.00;;;1.71;61.57
55347;BME280;41218;55.700;38.270;2023-04-08T01:02:33;100997.94;;;1.67;61.55
55347;BME280;41218;55.700;38.270;2023-04-08T01:07:37;101001.53;;;1.63;61.60
55347;BME280;41218;55.700;38.270;2023-04-08T01:12:43;100996.06;;;1.57;61.44
55347;BME280;41218;55.700;38.270;2023-04-08T01:17:49;101001.25;;;1.54;61.81
55347;BME280;41218;55.700;38.270;2023-04-08T01:28:06;100999.09;;;1.46;61.59
55347;BME280;41218;55.700;38.270;2023-04-08T01:33:13;100995.63;;;1.40;61.56
55347;BME280;41218;55.700;38.270;2023-04-08T01:38:17;100995.06;;;1.38;61.97
55347;BME280;41218;55.700;38.270;2023-04-08T01:43:18;100994.00;;;1.34;61.64
55347;BME280;41218;55.700;38.270;2023-04-08T01:48:20;100995.63;;;1.30;61.53
55347;BME280;41218;55.700;38.270;2023-04-08T01:53:21;100992.09;;;1.29;61.22
55347;BME280;41218;55.700;38.270;2023-04-08T01:58:23;100995.38;;;1.21;61.78
55347;BME280;41218;55.700;38.270;2023-04-08T02:03:26;100993.22;;;1.13;61.63
55347;BME280;41218;55.700;38.270;2023-04-08T02:08:28;100998.94;;;1.11;61.80
55347;BME280;41218;55.700;38.270;2023-04-08T02:13:30;101001.69;;;1.06;62.06
55347;BME280;41218;55.700;38.270;2023-04-08T02:18:33;100995.44;;;1.00;62.07
55347;BME280;41218;55.700;38.270;2023-04-08T02:23:37;101003.06;;;0.98;61.70
55347;BME280;41218;55.700;38.270;2023-04-08T02:28:39;101006.88;;;0.92;62.05
55347;BME280;41218;55.700;38.270;2023-04-08T02:33:42;101008.78;;;0.92;61.77
55347;BME280;41218;55.700;38.270;2023-04-08T02:38:47;101015.03;;;0.87;62.14
55347;BME280;41218;55.700;38.270;2023-04-08T02:43:49;101012.88;;;0.84;62.04
55347;BME280;41218;55.700;38.270;2023-04-08T02:48:54;101024.84;;;0.83;62.07
55347;BME280;41218;55.700;38.270;2023-04-08T02:53:55;101016.13;;;0.81;61.54
55347;BME280;41218;55.700;38.270;2023-04-08T02:58:55;101021.03;;;0.79;61.90
55347;BME280;41218;55.700;38.270;2023-04-08T03:03:56;101026.78;;;0.77;62.06
55347;BME280;41218;55.700;38.270;2023-04-08T03:08:56;101024.56;;;0.74;61.99
55347;BME280;41218;55.700;38.270;2023-04-08T03:13:57;101022.41;;;0.71;61.85
55347;BME280;41218;55.700;38.270;2023-04-08T03:18:57;101026.22;;;0.70;62.05
55347;BME280;41218;55.700;38.270;2023-04-08T03:23:58;101026.22;;;0.70;62.01
55347;BME280;41218;55.700;38.270;2023-04-08T03:28:58;101021.03;;;0.69;61.85
55347;BME280;41218;55.700;38.270;2023-04-08T03:33:59;101027.59;;;0.68;61.89
55347;BME280;41218;55.700;38.270;2023-04-08T03:38:59;101025.66;;;0.68;62.33
55347;BME280;41218;55.700;38.270;2023-04-08T03:44:00;101029.19;;;0.69;62.05
55347;BME280;41218;55.700;38.270;2023-04-08T03:49:00;101019.94;;;0.65;62.01
55347;BME280;41218;55.700;38.270;2023-04-08T03:54:01;101030.31;;;0.68;61.89
55347;BME280;41218;55.700;38.270;2023-04-08T03:59:01;101017.78;;;0.62;62.12
55347;BME280;41218;55.700;38.270;2023-04-08T04:04:02;101043.09;;;0.72;61.83
55347;BME280;41218;55.700;38.270;2023-04-08T04:09:03;101034.91;;;0.72;61.91
55347;BME280;41218;55.700;38.270;2023-04-08T04:14:04;101040.91;;;0.79;61.86
55347;BME280;41218;55.700;38.270;2023-04-08T04:19:04;101044.97;;;0.87;61.94
55347;BME280;41218;55.700;38.270;2023-04-08T04:24:05;101048.53;;;0.93;61.59
55347;BME280;41218;55.700;38.270;2023-04-08T04:29:05;101048.50;;;1.03;61.57
55347;BME280;41218;55.700;38.270;2023-04-08T04:34:06;101049.03;;;1.15;61.29
55347;BME280;41218;55.700;38.270;2023-04-08T04:39:06;101040.31;;;1.24;60.89
55347;BME280;41218;55.700;38.270;2023-04-08T04:44:07;101032.94;;;1.34;60.92
55347;BME280;41218;55.700;38.270;2023-04-08T04:49:07;101046.28;;;1.41;60.86
55347;BME280;41218;55.700;38.270;2023-04-08T04:54:08;101047.03;;;1.52;60.68
55347;BME280;41218;55.700;38.270;2023-04-08T04:59:08;101051.66;;;1.62;60.70
55347;BME280;41218;55.700;38.270;2023-04-08T05:04:09;101052.41;;;1.72;60.67
55347;BME280;41218;55.700;38.270;2023-04-08T05:09:09;101046.66;;;1.84;60.40
55347;BME280;41218;55.700;38.270;2023-04-08T05:14:10;101054.78;;;1.99;59.99
55347;BME280;41218;55.700;38.270;2023-04-08T05:19:10;101054.69;;;2.15;60.10
55347;BME280;41218;55.700;38.270;2023-04-08T05:24:11;101061.94;;;2.35;59.78
55347;BME280;41218;55.700;38.270;2023-04-08T05:29:11;101058.84;;;2.52;59.42
55347;BME280;41218;55.700;38.270;2023-04-08T05:34:12;101060.88;;;2.70;59.34
55347;BME280;41218;55.700;38.270;2023-04-08T05:39:13;101065.38;;;2.90;58.76
55347;BME280;41218;55.700;38.270;2023-04-08T05:44:13;101068.72;;;3.11;58.75
55347;BME280;41218;55.700;38.270;2023-04-08T05:49:14;101075.03;;;3.36;58.27
55347;BME280;41218;55.700;38.270;2023-04-08T05:54:16;101081.41;;;3.55;58.37
55347;BME280;41218;55.700;38.270;2023-04-08T05:59:17;101071.06;;;3.76;57.74
55347;BME280;41218;55.700;38.270;2023-04-08T06:04:17;101081.16;;;4.00;57.62
55347;BME280;41218;55.700;38.270;2023-04-08T06:09:18;101075.72;;;4.19;57.10
55347;BME280;41218;55.700;38.270;2023-04-08T06:14:18;101073.53;;;4.40;56.83
55347;BME280;41218;55.700;38.270;2023-04-08T06:19:20;101066.63;;;4.61;56.59
55347;BME280;41218;55.700;38.270;2023-04-08T06:24:20;101074.72;;;4.86;56.62
55347;BME280;41218;55.700;38.270;2023-04-08T06:29:21;101072.44;;;5.07;55.85
55347;BME280;41218;55.700;38.270;2023-04-08T06:34:22;101067.00;;;5.20;55.68
55347;BME280;41218;55.700;38.270;2023-04-08T06:39:23;101071.53;;;5.44;55.26
55347;BME280;41218;55.700;38.270;2023-04-08T06:44:24;101077.63;;;5.69;55.33
55347;BME280;41218;55.700;38.270;2023-04-08T06:49:24;101075.50;;;5.93;55.07
55347;BME280;41218;55.700;38.270;2023-04-08T06:54:26;101079.78;;;6.13;54.48
55347;BME280;41218;55.700;38.270;2023-04-08T06:59:27;101078.53;;;6.33;54.32
55347;BME280;41218;55.700;38.270;2023-04-08T07:04:27;101071.13;;;6.56;54.16
55347;BME280;41218;55.700;38.270;2023-04-08T07:09:28;101072.13;;;6.83;53.55
55347;BME280;41218;55.700;38.270;2023-04-08T07:14:28;101072.06;;;6.97;52.96
55347;BME280;41218;55.700;38.270;2023-04-08T07:19:29;101064.56;;;7.11;53.06
55347;BME280;41218;55.700;38.270;2023-04-08T07:24:30;101065.84;;;7.36;52.42
55347;BME280;41218;55.700;38.270;2023-04-08T07:29:31;101059.00;;;7.56;52.06
55347;BME280;41218;55.700;38.270;2023-04-08T07:34:34;101057.75;;;7.71;51.38
55347;BME280;41218;55.700;38.270;2023-04-08T07:39:35;101058.63;;;7.89;51.31
55347;BME280;41218;55.700;38.270;2023-04-08T07:44:35;101043.56;;;8.04;51.17
55347;BME280;41218;55.700;38.270;2023-04-08T07:49:37;101047.00;;;8.27;50.81
55347;BME280;41218;55.700;38.270;2023-04-08T07:54:38;101040.44;;;8.46;50.08
55347;BME280;41218;55.700;38.270;2023-04-08T07:59:39;101055.81;;;8.64;49.94
55347;BME280;41218;55.700;38.270;2023-04-08T08:04:39;101053.38;;;8.80;49.58
55347;BME280;41218;55.700;38.270;2023-04-08T08:09:41;101052.06;;;8.95;49.17
55347;BME280;41218;55.700;38.270;2023-04-08T08:14:42;101040.50;;;9.10;48.81
55347;BME280;41218;55.700;38.270;2023-04-08T08:19:42;101037.69;;;9.28;48.83
55347;BME280;41218;55.700;38.270;2023-04-08T08:24:43;101037.28;;;9.47;48.43
55347;BME280;41218;55.700;38.270;2023-04-08T08:29:43;101031.53;;;9.69;47.99
55347;BME280;41218;55.700;38.270;2023-04-08T08:34:44;101034.00;;;9.92;47.60
55347;BME280;41218;55.700;38.270;2023-04-08T08:39:44;101018.16;;;10.01;46.75
55347;BME280;41218;55.700;38.270;2023-04-08T08:44:45;101028.63;;;10.16;46.87
55347;BME280;41218;55.700;38.270;2023-04-08T08:49:46;101020.75;;;10.27;46.62
55347;BME280;41218;55.700;38.270;2023-04-08T08:54:47;101015.56;;;10.26;46.69
55347;BME280;41218;55.700;38.270;2023-04-08T08:59:47;101010.00;;;10.34;46.56
55347;BME280;41218;55.700;38.270;2023-04-08T09:05:02;101015.75;;;10.50;45.00
55347;BME280;41218;55.700;38.270;2023-04-08T09:10:03;101015.44;;;10.64;45.67
55347;BME280;41218;55.700;38.270;2023-04-08T09:15:07;101029.09;;;10.81;44.40
55347;BME280;41218;55.700;38.270;2023-04-08T09:20:12;101028.06;;;10.86;44.53
55347;BME280;41218;55.700;38.270;2023-04-08T09:25:33;101010.13;;;10.92;44.34
55347;BME280;41218;55.700;38.270;2023-04-08T09:30:33;101010.25;;;10.96;44.55
55347;BME280;41218;55.700;38.270;2023-04-08T09:35:34;101027.69;;;11.09;44.46
55347;BME280;41218;55.700;38.270;2023-04-08T09:40:35;101017.56;;;11.25;44.73
55347;BME280;41218;55.700;38.270;2023-04-08T09:45:38;101014.13;;;11.28;43.51
55347;BME280;41218;55.700;38.270;2023-04-08T09:50:46;101002.94;;;11.37;43.02
55347;BME280;41218;55.700;38.270;2023-04-08T09:55:50;101005.63;;;11.46;43.03
55347;BME280;41218;55.700;38.270;2023-04-08T10:00:53;101002.13;;;11.61;42.46
55347;BME280;41218;55.700;38.270;2023-04-08T10:05:54;100997.75;;;11.72;42.39
55347;BME280;41218;55.700;38.270;2023-04-08T10:10:59;100993.34;;;11.83;42.02
55347;BME280;41218;55.700;38.270;2023-04-08T10:16:22;100991.66;;;11.91;40.36
55347;BME280;41218;55.700;38.270;2023-04-08T10:26:37;100978.34;;;12.09;40.98
55347;BME280;41218;55.700;38.270;2023-04-08T10:31:39;100984.00;;;12.13;40.89
55347;BME280;41218;55.700;38.270;2023-04-08T10:36:40;100973.38;;;12.15;41.10
55347;BME280;41218;55.700;38.270;2023-04-08T10:41:49;100977.97;;;12.23;40.75
55347;BME280;41218;55.700;38.270;2023-04-08T10:46:51;100980.22;;;12.33;40.63
55347;BME280;41218;55.700;38.270;2023-04-08T10:51:52;100972.38;;;12.35;40.31
55347;BME280;41218;55.700;38.270;2023-04-08T10:56:52;100953.88;;;12.39;40.71
55347;BME280;41218;55.700;38.270;2023-04-08T11:01:53;100953.38;;;12.50;40.63
55347;BME280;41218;55.700;38.270;2023-04-08T11:06:54;100961.53;;;12.58;40.10
55347;BME280;41218;55.700;38.270;2023-04-08T11:11:55;100946.69;;;12.67;40.06
55347;BME280;41218;55.700;38.270;2023-04-08T11:16:56;100947.97;;;12.69;40.03
55347;BME280;41218;55.700;38.270;2023-04-08T11:21:57;100946.78;;;12.70;39.94
55347;BME280;41218;55.700;38.270;2023-04-08T11:26:58;100943.22;;;12.70;40.11
55347;BME280;41218;55.700;38.270;2023-04-08T11:31:59;100940.16;;;12.75;39.69
55347;BME280;41218;55.700;38.270;2023-04-08T11:37:00;100929.91;;;12.75;39.37
55347;BME280;41218;55.700;38.270;2023-04-08T11:42:00;100926.41;;;12.78;39.42
55347;BME280;41218;55.700;38.270;2023-04-08T11:47:01;100922.81;;;12.78;39.74
55347;BME280;41218;55.700;38.270;2023-04-08T11:52:01;100925.84;;;12.73;39.86
55347;BME280;41218;55.700;38.270;2023-04-08T11:57:02;100922.03;;;12.77;39.68
55347;BME280;41218;55.700;38.270;2023-04-08T12:02:03;100924.28;;;12.88;39.59
55347;BME280;41218;55.700;38.270;2023-04-08T12:07:04;100919.25;;;12.93;39.61
55347;BME280;41218;55.700;38.270;2023-04-08T12:12:04;100907.97;;;13.02;39.63
55347;BME280;41218;55.700;38.270;2023-04-08T12:17:05;100914.44;;;13.06;39.24
55347;BME280;41218;55.700;38.270;2023-04-08T12:22:06;100903.78;;;13.08;38.92
55347;BME280;41218;55.700;38.270;2023-04-08T12:27:06;100900.25;;;13.11;39.02
55347;BME280;41218;55.700;38.270;2023-04-08T12:32:07;100889.69;;;13.17;39.28
55347;BME280;41218;55.700;38.270;2023-04-08T12:37:07;100893.66;;;13.16;39.04
55347;BME280;41218;55.700;38.270;2023-04-08T12:42:08;100888.16;;;13.19;39.07
55347;BME280;41218;55.700;38.270;2023-04-08T12:47:08;100886.22;;;13.20;38.68
55347;BME280;41218;55.700;38.270;2023-04-08T12:52:09;100878.50;;;13.13;38.78
55347;BME280;41218;55.700;38.270;2023-04-08T12:57:09;100875.38;;;13.15;38.73
55347;BME280;41218;55.700;38.270;2023-04-08T13:02:10;100866.25;;;13.14;38.55
55347;BME280;41218;55.700;38.270;2023-04-08T13:07:10;100881.00;;;13.18;38.79
55347;BME280;41218;55.700;38.270;2023-04-08T13:12:11;100867.84;;;13.15;38.71
55347;BME280;41218;55.700;38.270;2023-04-08T13:17:11;100868.94;;;13.11;38.79
55347;BME280;41218;55.700;38.270;2023-04-08T13:22:12;100860.88;;;13.06;38.78
55347;BME280;41218;55.700;38.270;2023-04-08T13:27:13;100855.31;;;13.06;38.92
55347;BME280;41218;55.700;38.270;2023-04-08T13:32:14;100849.31;;;13.03;38.91
55347;BME280;41218;55.700;38.270;2023-04-08T13:37:15;100844.59;;;13.04;38.88
55347;BME280;41218;55.700;38.270;2023-04-08T13:42:15;100851.94;;;13.12;38.47
55347;BME280;41218;55.700;38.270;2023-04-08T13:47:16;100832.16;;;12.98;38.84
55347;BME280;41218;55.700;38.270;2023-04-08T13:52:17;100847.38;;;13.04;38.55
55347;BME280;41218;55.700;38.270;2023-04-08T13:57:17;100846.53;;;13.03;38.77
55347;BME280;41218;55.700;38.270;2023-04-08T14:02:18;100843.31;;;13.01;39.01
55347;BME280;41218;55.700;38.270;2023-04-08T14:07:18;100836.97;;;13.01;38.78
55347;BME280;41218;55.700;38.270;2023-04-08T14:12:19;100835.19;;;12.93;39.00
55347;BME280;41218;55.700;38.270;2023-04-08T14:17:19;100838.31;;;12.91;38.83
55347;BME280;41218;55.700;38.270;2023-04-08T14:22:20;100823.84;;;12.82;39.02
55347;BME280;41218;55.700;38.270;2023-04-08T14:27:20;100831.06;;;12.87;39.09
55347;BME280;41218;55.700;38.270;2023-04-08T14:32:21;100833.25;;;12.77;39.11
55347;BME280;41218;55.700;38.270;2023-04-08T14:37:21;100833.16;;;12.74;38.97
55347;BME280;41218;55.700;38.270;2023-04-08T14:42:22;100836.28;;;12.72;39.15
55347;BME280;41218;55.700;38.270;2023-04-08T14:47:22;100828.94;;;12.64;39.20
55347;BME280;41218;55.700;38.270;2023-04-08T14:52:23;100823.19;;;12.57;39.72
55347;BME280;41218;55.700;38.270;2023-04-08T14:57:24;100833.84;;;12.55;39.98
55347;BME280;41218;55.700;38.270;2023-04-08T15:02:24;100838.78;;;12.46;40.13
55347;BME280;41218;55.700;38.270;2023-04-08T15:07:25;100836.19;;;12.37;40.57
55347;BME280;41218;55.700;38.270;2023-04-08T15:12:26;100825.97;;;12.25;40.72
55347;BME280;41218;55.700;38.270;2023-04-08T15:17:26;100825.28;;;12.16;41.14
55347;BME280;41218;55.700;38.270;2023-04-08T15:22:27;100818.56;;;12.01;41.84
55347;BME280;41218;55.700;38.270;2023-04-08T15:27:27;100823.34;;;11.88;42.00
55347;BME280;41218;55.700;38.270;2023-04-08T15:32:28;100828.56;;;11.77;42.58
55347;BME280;41218;55.700;38.270;2023-04-08T15:37:29;100828.94;;;11.63;43.57
55347;BME280;41218;55.700;38.270;2023-04-08T15:42:29;100836.81;;;11.49;44.14
55347;BME280;41218;55.700;38.270;2023-04-08T15:47:30;100836.38;;;11.35;44.89
55347;BME280;41218;55.700;38.270;2023-04-08T15:52:31;100835.50;;;11.18;45.58
55347;BME280;41218;55.700;38.270;2023-04-08T15:57:31;100835.75;;;11.01;45.74
55347;BME280;41218;55.700;38.270;2023-04-08T16:02:32;100834.00;;;10.84;46.76
55347;BME280;41218;55.700;38.270;2023-04-08T16:07:32;100830.63;;;10.66;47.12
55347;BME280;41218;55.700;38.270;2023-04-08T16:12:33;100832.13;;;10.51;47.81
55347;BME280;41218;55.700;38.270;2023-04-08T16:17:34;100846.59;;;10.36;48.33
55347;BME280;41218;55.700;38.270;2023-04-08T16:22:34;100850.78;;;10.21;48.92
55347;BME280;41218;55.700;38.270;2023-04-08T16:27:36;100858.09;;;10.05;49.09
55347;BME280;41218;55.700;38.270;2023-04-08T16:32:37;100850.09;;;9.91;49.67
55347;BME280;41218;55.700;38.270;2023-04-08T16:37:38;100857.53;;;9.78;50.23
55347;BME280;41218;55.700;38.270;2023-04-08T16:42:38;100859.28;;;9.61;50.62
55347;BME280;41218;55.700;38.270;2023-04-08T16:47:39;100859.22;;;9.49;51.17
55347;BME280;41218;55.700;38.270;2023-04-08T16:52:42;100855.75;;;9.31;51.73
55347;BME280;41218;55.700;38.270;2023-04-08T16:57:48;100865.69;;;9.23;51.95
55347;BME280;41218;55.700;38.270;2023-04-08T17:02:49;100868.69;;;9.10;52.38
55347;BME280;41218;55.700;38.270;2023-04-08T17:07:49;100867.81;;;8.88;52.76
55347;BME280;41218;55.700;38.270;2023-04-08T17:12:50;100867.03;;;8.79;53.18
55347;BME280;41218;55.700;38.270;2023-04-08T17:17:51;100879.56;;;8.68;53.94
55347;BME280;41218;55.700;38.270;2023-04-08T17:22:52;100870.84;;;8.57;53.99
55347;BME280;41218;55.700;38.270;2023-04-08T17:27:53;100873.16;;;8.46;54.27
55347;BME280;41218;55.700;38.270;2023-04-08T17:32:53;100876.38;;;8.39;54.59
55347;BME280;41218;55.700;38.270;2023-04-08T17:37:54;100881.09;;;8.30;55.01
55347;BME280;41218;55.700;38.270;2023-04-08T17:42:54;100878.50;;;8.16;55.10
55347;BME280;41218;55.700;38.270;2023-04-08T17:47:56;100887.09;;;8.06;55.74
55347;BME280;41218;55.700;38.270;2023-04-08T17:52:58;100887.13;;;7.97;55.98
55347;BME280;41218;55.700;38.270;2023-04-08T17:57:58;100883.88;;;7.87;55.84
55347;BME280;41218;55.700;38.270;2023-04-08T18:02:59;100877.25;;;7.79;56.32
55347;BME280;41218;55.700;38.270;2023-04-08T18:07:59;100885.97;;;7.72;56.61
55347;BME280;41218;55.700;38.270;2023-04-08T18:13:00;100874.78;;;7.60;56.66
55347;BME280;41218;55.700;38.270;2023-04-08T18:18:01;100873.50;;;7.57;57.09
55347;BME280;41218;55.700;38.270;2023-04-08T18:23:02;100874.31;;;7.49;57.20
55347;BME280;41218;55.700;38.270;2023-04-08T18:28:05;100864.56;;;7.34;57.46
55347;BME280;41218;55.700;38.270;2023-04-08T18:33:06;100864.41;;;7.31;57.61
55347;BME280;41218;55.700;38.270;2023-04-08T18:38:07;100870.03;;;7.26;57.89
55347;BME280;41218;55.700;38.270;2023-04-08T18:43:08;100868.06;;;7.17;57.93
55347;BME280;41218;55.700;38.270;2023-04-08T18:48:11;100874.06;;;7.11;57.83
55347;BME280;41218;55.700;38.270;2023-04-08T18:53:11;100866.91;;;7.01;58.04
55347;BME280;41218;55.700;38.270;2023-04-08T18:58:12;100868.34;;;6.90;58.46
55347;BME280;41218;55.700;38.270;2023-04-08T19:03:12;100874.13;;;6.88;58.13
55347;BME280;41218;55.700;38.270;2023-04-08T19:08:13;100877.50;;;6.85;58.49
55347;BME280;41218;55.700;38.270;2023-04-08T19:13:14;100879.59;;;6.79;58.50
55347;BME280;41218;55.700;38.270;2023-04-08T19:18:14;100865.81;;;6.71;58.56
55347;BME280;41218;55.700;38.270;2023-04-08T19:23:15;100878.25;;;6.68;58.73
55347;BME280;41218;55.700;38.270;2023-04-08T19:28:17;100874.66;;;6.59;59.16
55347;BME280;41218;55.700;38.270;2023-04-08T19:33:18;100862.00;;;6.49;58.83
55347;BME280;41218;55.700;38.270;2023-04-08T19:38:20;100874.09;;;6.48;59.32
55347;BME280;41218;55.700;38.270;2023-04-08T19:43:21;100875.34;;;6.42;59.25
55347;BME280;41218;55.700;38.270;2023-04-08T19:48:22;100877.41;;;6.36;59.31
55347;BME280;41218;55.700;38.270;2023-04-08T19:53:22;100876.44;;;6.32;59.50
55347;BME280;41218;55.700;38.270;2023-04-08T19:58:23;100877.88;;;6.30;59.67
55347;BME280;41218;55.700;38.270;2023-04-08T20:03:23;100881.88;;;6.24;59.50
55347;BME280;41218;55.700;38.270;2023-04-08T20:08:24;100889.09;;;6.19;59.40
55347;BME280;41218;55.700;38.270;2023-04-08T20:13:26;100885.69;;;6.14;59.79
55347;BME280;41218;55.700;38.270;2023-04-08T20:18:27;100900.84;;;6.11;59.61
55347;BME280;41218;55.700;38.270;2023-04-08T20:23:27;100902.88;;;6.06;60.00
55347;BME280;41218;55.700;38.270;2023-04-08T20:28:28;100904.63;;;6.01;60.14
55347;BME280;41218;55.700;38.270;2023-04-08T20:33:29;100897.34;;;5.97;60.29
55347;BME280;41218;55.700;38.270;2023-04-08T20:38:31;100901.28;;;5.91;59.82
55347;BME280;41218;55.700;38.270;2023-04-08T20:43:34;100899.50;;;5.86;60.27
55347;BME280;41218;55.700;38.270;2023-04-08T20:48:35;100894.41;;;5.79;60.23
55347;BME280;41218;55.700;38.270;2023-04-08T20:53:36;100892.50;;;5.80;60.17
55347;BME280;41218;55.700;38.270;2023-04-08T20:58:36;100898.09;;;5.75;60.46
55347;BME280;41218;55.700;38.270;2023-04-08T21:03:37;100890.59;;;5.67;60.35
55347;BME280;41218;55.700;38.270;2023-04-08T21:08:37;100893.94;;;5.63;60.19
55347;BME280;41218;55.700;38.270;2023-04-08T21:13:38;100902.00;;;5.60;60.67
55347;BME280;41218;55.700;38.270;2023-04-08T21:18:39;100891.94;;;5.55;60.47
55347;BME280;41218;55.700;38.270;2023-04-08T21:23:39;100900.50;;;5.54;60.67
55347;BME280;41218;55.700;38.270;2023-04-08T21:28:40;100895.41;;;5.47;60.58
55347;BME280;41218;55.700;38.270;2023-04-08T21:33:41;100891.47;;;5.39;60.57
55347;BME280;41218;55.700;38.270;2023-04-08T21:38:41;100901.59;;;5.39;60.75
55347;BME280;41218;55.700;38.270;2023-04-08T21:43:42;100883.06;;;5.22;60.82
55347;BME280;41218;55.700;38.270;2023-04-08T21:48:42;100905.56;;;5.33;60.74
55347;BME280;41218;55.700;38.270;2023-04-08T21:53:43;100907.31;;;5.29;60.86
55347;BME280;41218;55.700;38.270;2023-04-08T21:58:44;100909.34;;;5.23;61.04
55347;BME280;41218;55.700;38.270;2023-04-08T22:03:45;100908.53;;;5.22;60.72
55347;BME280;41218;55.700;38.270;2023-04-08T22:08:45;100918.19;;;5.20;60.82
55347;BME280;41218;55.700;38.270;2023-04-08T22:13:46;100915.22;;;5.16;60.88
55347;BME280;41218;55.700;38.270;2023-04-08T22:18:46;100925.41;;;5.16;60.72
55347;BME280;41218;55.700;38.270;2023-04-08T22:23:47;100922.75;;;5.11;60.95
55347;BME280;41218;55.700;38.270;2023-04-08T22:28:47;100924.97;;;5.09;61.05
55347;BME280;41218;55.700;38.270;2023-04-08T22:33:48;100914.44;;;5.02;61.26
55347;BME280;41218;55.700;38.270;2023-04-08T22:38:49;100925.38;;;5.02;61.39
55347;BME280;41218;55.700;38.270;2023-04-08T22:43:49;100919.19;;;4.96;61.18
55347;BME280;41218;55.700;38.270;2023-04-08T22:48:50;100908.84;;;4.93;61.16
55347;BME280;41218;55.700;38.270;2023-04-08T22:53:51;100919.28;;;4.91;61.41
55347;BME280;41218;55.700;38.270;2023-04-08T22:58:51;100912.00;;;4.87;60.82
55347;BME280;41218;55.700;38.270;2023-04-08T23:03:52;100912.88;;;4.82;61.30
55347;BME280;41218;55.700;38.270;2023-04-08T23:08:52;100918.16;;;4.78;61.36
55347;BME280;41218;55.700;38.270;2023-04-08T23:13:53;100907.38;;;4.68;61.62
55347;BME280;41218;55.700;38.270;2023-04-08T23:18:53;100916.63;;;4.72;61.35
55347;BME280;41218;55.700;38.270;2023-04-08T23:23:54;100913.69;;;4.69;61.52
55347;BME280;41218;55.700;38.270;2023-04-08T23:28:54;100917.00;;;4.66;61.55
55347;BME280;41218;55.700;38.270;2023-04-08T23:33:55;100907.16;;;4.51;61.50
55347;BME280;41218;55.700;38.270;2023-04-08T23:38:55;100912.13;;;4.49;61.62
55347;BME280;41218;55.700;38.270;2023-04-08T23:43:56;100922.47;;;4.52;61.75
55347;BME280;41218;55.700;38.270;2023-04-08T23:48:56;100928.56;;;4.49;61.54
55347;BME280;41218;55.700;38.270;2023-04-08T23:53:57;100922.34;;;4.43;61.79
55347;BME280;41218;55.700;38.270;2023-04-08T23:58:57;100915.31;;;4.37;61.81
